createdAt,value
2019-02-20T00:01:39.632Z,10.30
2019-02-20T00:04:05.775Z,13.25
2019-02-20T00:06:31.993Z,8.48
2019-02-20T00:08:58.172Z,10.28
2019-02-20T00:11:24.327Z,10.03
2019-02-20T00:13:50.474Z,12.55
2019-02-20T00:16:16.734Z,10.18
2019-02-20T00:18:42.880Z,11.28
2019-02-20T00:21:09.036Z,11.25
2019-02-20T00:23:35.522Z,10.18
2019-02-20T00:26:01.728Z,9.75
2019-02-20T00:28:27.885Z,11.75
2019-02-20T00:30:54.050Z,11.28
2019-02-20T00:33:20.222Z,12.95
2019-02-20T00:35:46.444Z,9.55
2019-02-20T00:38:12.609Z,10.13
2019-02-20T00:40:38.794Z,11.00
2019-02-20T00:43:04.948Z,9.05
2019-02-20T00:45:31.180Z,10.05
2019-02-20T00:47:57.338Z,9.28
2019-02-20T00:50:23.513Z,9.15
2019-02-20T00:52:50.406Z,8.25
2019-02-20T00:55:16.693Z,8.33
2019-02-20T00:57:42.857Z,11.68
2019-02-20T01:00:09.001Z,10.00
2019-02-20T01:02:35.154Z,9.30
2019-02-20T01:12:41.444Z,9.33
2019-02-20T01:15:07.606Z,8.35
2019-02-20T01:17:33.838Z,10.98
2019-02-20T01:19:59.979Z,8.38
2019-02-20T01:22:26.156Z,8.18
2019-02-20T01:24:52.314Z,8.90
2019-02-20T01:27:18.470Z,9.13
2019-02-20T01:29:44.649Z,10.13
2019-02-20T01:32:10.801Z,8.58
2019-02-20T01:34:36.951Z,10.23
2019-02-20T01:37:03.202Z,9.13
2019-02-20T01:39:29.391Z,9.18
2019-02-20T01:41:55.551Z,9.28
2019-02-20T01:44:21.697Z,7.92
2019-02-20T01:46:47.937Z,8.43
2019-02-20T01:49:14.090Z,8.40
2019-02-20T01:51:40.235Z,6.83
2019-02-20T01:54:06.455Z,9.50
2019-02-20T01:56:32.621Z,8.20
2019-02-20T01:58:58.767Z,9.60
2019-02-20T02:01:24.963Z,8.30
2019-02-20T02:03:51.115Z,8.25
2019-02-20T02:06:17.339Z,9.20
2019-02-20T02:08:43.515Z,7.65
2019-02-20T02:11:09.674Z,9.95
2019-02-20T02:13:35.818Z,11.10
2019-02-20T02:16:02.078Z,7.58
2019-02-20T02:18:28.221Z,9.65
2019-02-20T02:20:54.404Z,9.63
2019-02-20T02:23:20.545Z,9.80
2019-02-20T02:25:46.764Z,9.98
2019-02-20T02:28:12.930Z,8.73
2019-02-20T02:30:39.084Z,9.78
2019-02-20T02:33:05.235Z,7.95
2019-02-20T02:35:31.511Z,8.30
2019-02-20T02:37:57.649Z,10.10
2019-02-20T02:40:23.822Z,7.92
2019-02-20T02:42:49.970Z,8.15
2019-02-20T02:45:16.268Z,12.75
2019-02-20T02:47:42.414Z,8.93
2019-02-20T02:50:08.566Z,9.93
2019-02-20T02:52:34.719Z,8.43
2019-02-20T02:55:00.935Z,8.75
2019-02-20T02:57:27.086Z,11.00
2019-02-20T02:59:53.221Z,8.13
2019-02-20T03:02:19.420Z,9.73
2019-02-20T03:04:45.556Z,10.28
2019-02-20T03:07:11.702Z,8.50
2019-02-20T03:09:37.861Z,9.30
2019-02-20T03:12:04.004Z,8.83
2019-02-20T03:14:30.195Z,8.78
2019-02-20T03:16:56.334Z,8.50
2019-02-20T03:19:22.475Z,9.25
2019-02-20T03:21:48.677Z,9.43
2019-02-20T03:24:14.830Z,9.98
2019-02-20T03:26:41.055Z,8.38
2019-02-20T03:29:07.420Z,9.08
2019-02-20T03:31:33.583Z,8.18
2019-02-20T03:33:59.779Z,10.55
2019-02-20T03:36:26.010Z,8.18
2019-02-20T03:38:52.149Z,8.28
2019-02-20T03:41:18.318Z,13.10
2019-02-20T03:43:44.469Z,10.58
2019-02-20T03:46:10.691Z,8.40
2019-02-20T03:48:37.055Z,9.83
2019-02-20T03:51:03.206Z,10.03
2019-02-20T03:53:29.364Z,9.60
2019-02-20T03:55:55.641Z,9.78
2019-02-20T03:58:21.779Z,9.03
2019-02-20T04:00:47.921Z,9.58
2019-02-20T04:03:14.091Z,8.78
2019-02-20T04:05:40.319Z,9.33
2019-02-20T04:08:06.476Z,7.45
2019-02-20T04:10:32.649Z,8.68
2019-02-20T04:12:58.799Z,7.33
2019-02-20T04:15:25.034Z,8.58
2019-02-20T04:17:51.209Z,8.55
2019-02-20T04:20:17.352Z,9.38
2019-02-20T04:22:43.497Z,8.38
2019-02-20T04:25:09.670Z,6.47
2019-02-20T04:27:35.824Z,8.38
2019-02-20T04:30:01.981Z,10.45
2019-02-20T04:32:28.147Z,10.10
2019-02-20T04:34:54.353Z,8.55
2019-02-20T04:37:20.499Z,11.20
2019-02-20T04:39:46.669Z,17.62
2019-02-20T04:42:12.816Z,8.75
2019-02-20T04:44:38.961Z,9.95
2019-02-20T04:47:05.136Z,11.28
2019-02-20T04:49:31.286Z,7.80
2019-02-20T04:51:57.441Z,8.18
2019-02-20T04:54:24.017Z,8.50
2019-02-20T04:56:50.172Z,11.12
2019-02-20T04:59:16.321Z,9.60
2019-02-20T05:01:42.489Z,11.97
2019-02-20T05:04:08.633Z,9.90
2019-02-20T05:06:34.822Z,9.35
2019-02-20T05:09:00.996Z,9.93
2019-02-20T05:11:27.141Z,10.55
2019-02-20T05:13:53.306Z,9.48
2019-02-20T05:16:19.567Z,9.63
2019-02-20T05:18:45.712Z,11.90
2019-02-20T05:21:12.770Z,9.43
2019-02-20T05:23:38.937Z,9.78
2019-02-20T05:26:05.169Z,10.13
2019-02-20T05:28:31.314Z,7.40
2019-02-20T05:30:57.484Z,10.80
2019-02-20T05:33:23.630Z,8.55
2019-02-20T05:35:49.788Z,8.63
2019-02-20T05:38:15.956Z,12.23
2019-02-20T05:40:42.113Z,10.55
2019-02-20T05:43:08.254Z,11.18
2019-02-20T05:45:34.424Z,8.10
2019-02-20T05:48:00.573Z,7.42
2019-02-20T05:50:26.754Z,9.88
2019-02-20T05:52:52.912Z,9.55
2019-02-20T05:55:22.181Z,9.03
2019-02-20T05:57:48.442Z,11.28
2019-02-20T06:00:14.577Z,7.62
2019-02-20T06:02:40.728Z,11.57
2019-02-20T06:05:06.934Z,11.25
2019-02-20T06:07:33.075Z,11.20
2019-02-20T06:09:59.221Z,8.35
2019-02-20T06:12:27.776Z,12.05
2019-02-20T06:14:53.987Z,10.53
2019-02-20T06:17:20.152Z,15.63
2019-02-20T06:19:46.297Z,11.18
2019-02-20T06:22:12.457Z,7.45
2019-02-20T06:24:44.080Z,11.10
2019-02-20T06:27:07.977Z,11.28
2019-02-20T06:29:34.332Z,10.68
2019-02-20T06:32:00.473Z,12.05
2019-02-20T06:34:26.631Z,12.00
2019-02-20T06:36:52.795Z,19.62
2019-02-20T06:39:18.953Z,15.48
2019-02-20T06:41:45.100Z,12.47
2019-02-20T06:44:11.299Z,13.80
2019-02-20T06:46:37.443Z,10.35
2019-02-20T06:49:03.605Z,14.80
2019-02-20T06:51:29.788Z,13.15
2019-02-20T06:53:55.934Z,15.48
2019-02-20T06:56:22.114Z,18.98
2019-02-20T06:58:48.278Z,12.63
2019-02-20T07:01:14.440Z,14.87
2019-02-20T07:03:40.596Z,14.70
2019-02-20T07:06:06.851Z,14.18
2019-02-20T07:08:33.007Z,12.90
2019-02-20T07:10:59.166Z,12.73
2019-02-20T07:13:25.344Z,14.83
2019-02-20T07:15:51.490Z,14.50
2019-02-20T07:18:17.634Z,9.68
2019-02-20T07:20:43.825Z,14.03
2019-02-20T07:23:09.980Z,12.47
2019-02-20T07:25:36.143Z,10.53
2019-02-20T07:28:02.336Z,9.65
2019-02-20T07:30:28.467Z,11.93
2019-02-20T07:32:54.623Z,10.08
2019-02-20T07:35:20.883Z,12.58
2019-02-20T07:37:47.035Z,9.80
2019-02-20T07:40:13.192Z,10.68
2019-02-20T07:42:39.360Z,11.25
2019-02-20T07:45:05.595Z,9.03
2019-02-20T07:47:31.722Z,15.43
2019-02-20T07:49:57.903Z,8.80
2019-02-20T07:52:24.059Z,9.63
2019-02-20T07:54:50.290Z,10.10
2019-02-20T07:57:16.447Z,13.50
2019-02-20T07:59:42.587Z,11.75
2019-02-20T08:02:08.760Z,10.32
2019-02-20T08:04:34.998Z,11.28
2019-02-20T08:07:01.145Z,8.15
2019-02-20T08:09:27.318Z,6.75
2019-02-20T08:11:53.464Z,11.93
2019-02-20T08:14:19.710Z,8.00
2019-02-20T08:16:52.290Z,9.25
2019-02-20T08:19:13.757Z,9.08
2019-02-20T08:21:39.906Z,7.80
2019-02-20T08:24:06.062Z,8.65
2019-02-20T08:26:32.216Z,6.87
2019-02-20T08:28:58.391Z,7.92
2019-02-20T08:31:24.542Z,7.37
2019-02-20T08:33:50.693Z,9.13
2019-02-20T08:36:16.849Z,6.70
2019-02-20T08:38:43.000Z,11.48
2019-02-20T08:41:09.233Z,7.85
2019-02-20T08:43:35.391Z,7.28
2019-02-20T08:46:01.610Z,8.95
2019-02-20T08:48:27.787Z,9.73
2019-02-20T08:50:53.938Z,6.20
2019-02-20T08:53:20.095Z,6.87
2019-02-20T08:55:46.351Z,8.28
2019-02-20T08:58:12.512Z,10.53
2019-02-20T09:00:38.649Z,7.53
2019-02-20T09:03:04.823Z,5.35
2019-02-20T09:05:31.062Z,7.37
2019-02-20T09:07:57.186Z,7.62
2019-02-20T09:10:23.367Z,6.33
2019-02-20T09:12:49.517Z,6.05
2019-02-20T09:15:15.746Z,9.60
2019-02-20T09:17:41.920Z,5.78
2019-02-20T09:20:08.068Z,7.45
2019-02-20T09:22:34.219Z,6.83
2019-02-20T09:25:00.486Z,6.17
2019-02-20T09:27:26.630Z,6.70
2019-02-20T09:29:52.783Z,5.55
2019-02-20T09:32:18.961Z,7.28
2019-02-20T09:34:45.176Z,5.45
2019-02-20T09:37:11.331Z,8.08
2019-02-20T09:39:37.510Z,7.78
2019-02-20T09:42:03.653Z,8.33
2019-02-20T09:44:29.888Z,6.83
2019-02-20T09:46:56.063Z,9.43
2019-02-20T09:49:22.209Z,6.35
2019-02-20T09:51:48.361Z,7.40
2019-02-20T09:54:14.631Z,7.25
2019-02-20T09:56:40.789Z,6.12
2019-02-20T09:59:06.931Z,6.62
2019-02-20T10:01:33.108Z,7.28
2019-02-20T10:03:59.640Z,6.75
2019-02-20T10:06:26.035Z,5.65
2019-02-20T10:08:52.204Z,7.67
2019-02-20T10:11:18.348Z,6.08
2019-02-20T10:13:44.510Z,6.62
2019-02-20T10:16:10.694Z,7.03
2019-02-20T10:18:36.831Z,7.17
2019-02-20T10:21:02.978Z,7.20
2019-02-20T10:23:29.175Z,6.75
2019-02-20T10:26:00.757Z,5.37
2019-02-20T10:28:23.195Z,4.58
2019-02-20T10:30:49.350Z,6.25
2019-02-20T10:33:15.499Z,6.70
2019-02-20T10:35:41.722Z,6.17
2019-02-20T10:38:07.909Z,6.67
2019-02-20T10:40:34.062Z,4.30
2019-02-20T10:43:00.218Z,6.70
2019-02-20T10:45:26.466Z,5.50
2019-02-20T10:47:52.611Z,4.22
2019-02-20T10:50:18.757Z,5.20
2019-02-20T10:52:44.926Z,5.83
2019-02-20T10:55:11.161Z,5.45
2019-02-20T10:57:37.306Z,5.97
2019-02-20T11:00:03.495Z,4.15
2019-02-20T11:02:29.638Z,5.75
2019-02-20T11:04:55.863Z,5.83
2019-02-20T11:07:22.031Z,6.10
2019-02-20T11:09:48.173Z,5.40
2019-02-20T11:12:14.318Z,4.55
2019-02-20T11:14:40.490Z,6.03
2019-02-20T11:17:06.647Z,6.90
2019-02-20T11:19:32.793Z,4.90
2019-02-20T11:21:58.970Z,4.70
2019-02-20T11:24:25.186Z,5.20
2019-02-20T11:26:55.020Z,5.28
2019-02-20T11:29:19.240Z,4.70
2019-02-20T11:31:45.391Z,4.72
2019-02-20T11:34:11.639Z,4.47
2019-02-20T11:36:37.807Z,3.95
2019-02-20T11:39:03.959Z,6.12
2019-02-20T11:41:30.111Z,4.62
2019-02-20T11:43:56.385Z,6.45
2019-02-20T11:46:22.544Z,6.58
2019-02-20T11:48:48.696Z,3.30
2019-02-20T11:51:14.874Z,6.12
2019-02-20T11:53:41.065Z,4.47
2019-02-20T11:56:07.206Z,7.60
2019-02-20T11:58:33.373Z,4.90
2019-02-20T12:00:59.530Z,4.22
2019-02-20T12:03:25.693Z,4.65
2019-02-20T12:05:51.861Z,4.45
2019-02-20T12:08:18.015Z,4.75
2019-02-20T12:10:44.176Z,3.77
2019-02-20T12:13:10.343Z,4.70
2019-02-20T12:15:36.490Z,3.98
2019-02-20T12:18:02.636Z,5.72
2019-02-20T12:20:28.845Z,4.42
2019-02-20T12:22:55.001Z,4.75
2019-02-20T12:25:21.228Z,4.58
2019-02-20T12:27:47.398Z,3.62
2019-02-20T12:30:13.551Z,4.90
2019-02-20T12:32:39.700Z,4.22
2019-02-20T12:35:05.976Z,6.70
2019-02-20T12:37:32.118Z,7.22
2019-02-20T12:39:58.260Z,5.85
2019-02-20T12:42:24.439Z,3.95
2019-02-20T12:44:50.652Z,5.95
2019-02-20T12:47:16.846Z,4.22
2019-02-20T12:49:43.004Z,4.72
2019-02-20T12:52:09.155Z,12.55
2019-02-20T12:54:35.398Z,9.78
2019-02-20T12:57:01.537Z,5.42
2019-02-20T12:59:27.689Z,11.78
2019-02-20T13:01:53.855Z,11.35
2019-02-20T13:04:20.079Z,17.23
2019-02-20T13:06:46.223Z,18.25
2019-02-20T13:09:12.398Z,11.85
2019-02-20T13:11:38.540Z,14.35
2019-02-20T13:14:04.788Z,12.45
2019-02-20T13:16:30.957Z,13.68
2019-02-20T13:18:57.101Z,9.30
2019-02-20T13:21:25.450Z,11.20
2019-02-20T13:23:51.680Z,14.15
2019-02-20T13:26:17.827Z,10.78
2019-02-20T13:28:43.970Z,11.22
2019-02-20T13:31:10.142Z,10.35
2019-02-20T13:33:36.368Z,8.30
2019-02-20T13:36:02.511Z,10.48
2019-02-20T13:38:28.677Z,11.80
2019-02-20T13:40:54.871Z,9.73
2019-02-20T13:43:21.184Z,14.73
2019-02-20T13:45:47.353Z,9.50
2019-02-20T13:48:13.494Z,9.05
2019-02-20T13:50:39.639Z,9.33
2019-02-20T13:53:05.807Z,11.55
2019-02-20T13:55:34.451Z,7.87
2019-02-20T13:57:59.970Z,9.68
2019-02-20T14:00:26.138Z,7.80
2019-02-20T14:02:52.289Z,10.68
2019-02-20T14:05:18.838Z,8.58
2019-02-20T14:07:45.009Z,8.15
2019-02-20T14:10:11.177Z,12.28
2019-02-20T14:12:37.552Z,9.45
2019-02-20T14:15:03.723Z,8.73
2019-02-20T14:17:29.867Z,9.70
2019-02-20T14:19:56.018Z,8.40
2019-02-20T14:22:24.151Z,8.20
2019-02-20T14:24:50.358Z,7.00
2019-02-20T14:27:17.349Z,8.70
2019-02-20T14:29:43.685Z,8.48
2019-02-20T14:32:09.835Z,6.33
2019-02-20T14:34:36.277Z,13.25
2019-02-20T14:37:02.967Z,7.80
2019-02-20T14:39:29.277Z,7.45
2019-02-20T14:41:55.554Z,9.83
2019-02-20T14:44:21.755Z,7.78
2019-02-20T14:46:48.239Z,13.28
2019-02-20T14:49:14.407Z,7.10
2019-02-20T14:51:40.556Z,5.53
2019-02-20T14:54:06.747Z,6.97
2019-02-20T14:56:32.916Z,10.18
2019-02-20T14:58:59.089Z,9.63
2019-02-20T15:01:25.222Z,13.32
2019-02-20T15:03:51.493Z,15.60
2019-02-20T15:06:17.644Z,19.62
2019-02-20T15:08:44.067Z,18.27
2019-02-20T15:11:10.576Z,17.92
2019-02-20T15:13:36.988Z,22.87
2019-02-20T15:16:03.132Z,21.15
2019-02-20T15:18:29.299Z,18.70
2019-02-20T15:20:55.445Z,19.52
2019-02-20T15:23:21.603Z,35.60
2019-02-20T15:25:49.034Z,15.78
2019-02-20T15:28:16.160Z,15.20
2019-02-20T15:30:42.306Z,20.20
2019-02-20T15:33:08.491Z,22.75
2019-02-20T15:35:34.890Z,15.93
2019-02-20T15:38:01.036Z,21.00
2019-02-20T15:40:27.204Z,17.92
2019-02-20T15:42:53.351Z,16.65
2019-02-20T15:45:19.498Z,13.25
2019-02-20T15:47:45.668Z,16.20
2019-02-20T15:50:12.204Z,14.43
2019-02-20T15:52:39.733Z,17.62
2019-02-20T15:55:05.999Z,11.35
2019-02-20T15:57:38.243Z,15.80
2019-02-20T16:00:00.016Z,14.38
2019-02-20T16:02:26.188Z,12.18
2019-02-20T16:04:52.590Z,13.62
2019-02-20T16:07:18.740Z,16.85
2019-02-20T16:09:45.336Z,11.43
2019-02-20T16:12:11.474Z,11.97
2019-02-20T16:14:37.636Z,12.73
2019-02-20T16:17:04.100Z,16.07
2019-02-20T16:19:30.249Z,10.18
2019-02-20T16:21:56.400Z,15.25
2019-02-20T16:24:22.586Z,17.73
2019-02-20T16:26:48.736Z,14.75
2019-02-20T16:29:14.895Z,17.02
2019-02-20T16:31:41.444Z,19.32
2019-02-20T16:34:07.676Z,15.65
2019-02-20T16:36:33.824Z,17.20
2019-02-20T16:38:59.981Z,14.65
2019-02-20T16:41:26.131Z,17.23
2019-02-20T16:43:52.321Z,11.57
2019-02-20T16:46:18.475Z,16.02
2019-02-20T16:48:44.688Z,12.05
2019-02-20T16:51:10.829Z,16.55
2019-02-20T16:53:37.913Z,20.30
2019-02-20T16:56:04.094Z,16.00
2019-02-20T16:58:30.244Z,15.88
2019-02-20T17:00:56.398Z,17.77
2019-02-20T17:03:22.669Z,13.28
2019-02-20T17:05:48.886Z,17.70
2019-02-20T17:08:15.036Z,18.37
2019-02-20T17:10:41.203Z,22.77
2019-02-20T17:13:07.455Z,23.52
2019-02-20T17:15:33.612Z,31.57
2019-02-20T17:17:59.775Z,20.62
2019-02-20T17:20:25.924Z,17.02
2019-02-20T17:22:52.220Z,23.57
2019-02-20T17:25:18.398Z,20.75
2019-02-20T17:27:44.607Z,22.90
2019-02-20T17:30:10.756Z,21.07
2019-02-20T17:32:37.035Z,19.65
2019-02-20T17:35:03.566Z,21.55
2019-02-20T17:37:30.768Z,27.62
2019-02-20T17:39:57.053Z,18.25
2019-02-20T17:42:23.201Z,21.57
2019-02-20T17:44:49.427Z,22.07
2019-02-20T17:47:15.599Z,19.40
2019-02-20T17:49:41.762Z,16.60
2019-02-20T17:52:07.907Z,18.87
2019-02-20T17:54:34.301Z,15.90
2019-02-20T17:57:00.453Z,19.55
2019-02-20T17:59:26.598Z,15.65
2019-02-20T18:01:52.768Z,14.38
2019-02-20T18:04:18.985Z,16.93
2019-02-20T18:06:45.132Z,18.32
2019-02-20T18:09:11.647Z,22.07
2019-02-20T18:11:37.778Z,21.25
2019-02-20T18:14:04.012Z,20.97
2019-02-20T18:16:30.201Z,16.23
2019-02-20T18:18:56.334Z,20.30
2019-02-20T18:21:22.490Z,20.12
2019-02-20T18:23:48.748Z,21.45
2019-02-20T18:26:14.898Z,20.65
2019-02-20T18:28:41.066Z,20.20
2019-02-20T18:31:07.233Z,22.17
2019-02-20T18:33:33.433Z,22.52
2019-02-20T18:35:59.658Z,19.65
2019-02-20T18:38:25.806Z,16.82
2019-02-20T18:40:51.978Z,24.77
2019-02-20T18:43:18.184Z,15.60
2019-02-20T18:45:44.364Z,18.62
2019-02-20T18:48:10.605Z,24.27
2019-02-20T18:50:36.802Z,20.52
2019-02-20T18:53:02.982Z,11.75
2019-02-20T18:55:29.135Z,7.85
2019-02-20T18:57:55.293Z,12.37
2019-02-20T19:00:21.458Z,12.68
2019-02-20T19:02:47.676Z,13.80
2019-02-20T19:05:13.813Z,13.55
2019-02-20T19:07:40.227Z,11.97
2019-02-20T19:10:06.420Z,8.95
2019-02-20T19:12:32.590Z,9.88
2019-02-20T19:14:58.768Z,13.28
2019-02-20T19:17:24.905Z,15.50
2019-02-20T19:19:51.065Z,13.35
2019-02-20T19:22:17.226Z,16.60
2019-02-20T19:24:43.430Z,6.40
2019-02-20T19:27:09.589Z,12.63
2019-02-20T19:29:35.745Z,14.23
2019-02-20T19:32:01.885Z,14.45
2019-02-20T19:34:28.075Z,14.40
2019-02-20T19:36:54.474Z,14.53
2019-02-20T19:39:20.610Z,15.68
2019-02-20T19:41:46.778Z,12.25
2019-02-20T19:44:12.959Z,11.03
2019-02-20T19:46:40.147Z,10.88
2019-02-20T19:49:06.510Z,9.23
2019-02-20T19:51:33.693Z,11.53
2019-02-20T19:53:59.968Z,9.38
2019-02-20T19:56:26.139Z,9.70
2019-02-20T19:58:55.267Z,11.97
2019-02-20T20:01:20.177Z,13.13
2019-02-20T20:03:46.445Z,11.73
2019-02-20T20:06:12.772Z,13.43
2019-02-20T20:08:39.097Z,10.35
2019-02-20T20:11:05.296Z,8.05
2019-02-20T20:13:31.529Z,10.93
2019-02-20T20:15:57.730Z,10.48
2019-02-20T20:18:23.885Z,10.18
2019-02-20T20:20:50.045Z,8.73
2019-02-20T20:23:16.206Z,13.13
2019-02-20T20:25:42.419Z,9.90
2019-02-20T20:28:08.578Z,8.33
2019-02-20T20:30:34.724Z,7.78
2019-02-20T20:33:00.976Z,7.65
2019-02-20T20:35:27.450Z,8.18
2019-02-20T20:37:53.635Z,8.58
2019-02-20T20:40:19.805Z,8.88
2019-02-20T20:42:46.169Z,7.78
2019-02-20T20:45:12.565Z,7.75
2019-02-20T20:47:38.811Z,5.92
2019-02-20T20:50:04.961Z,12.40
2019-02-20T20:52:31.166Z,14.15
2019-02-20T20:54:57.336Z,16.40
2019-02-20T20:57:23.488Z,14.50
2019-02-20T20:59:49.639Z,17.57
2019-02-20T21:02:15.895Z,15.63
2019-02-20T21:04:42.048Z,10.03
2019-02-20T21:07:08.197Z,12.18
2019-02-20T21:09:34.366Z,9.90
2019-02-20T21:12:00.516Z,10.15
2019-02-20T21:14:26.672Z,11.12
2019-02-20T21:16:52.899Z,8.75
2019-02-20T21:19:21.527Z,7.78
2019-02-20T21:21:46.907Z,8.70
2019-02-20T21:24:13.081Z,10.15
2019-02-20T21:26:39.234Z,12.90
2019-02-20T21:29:05.408Z,14.13
2019-02-20T21:31:31.714Z,14.78
2019-02-20T21:33:57.884Z,11.00
2019-02-20T21:36:24.056Z,9.50
2019-02-20T21:38:50.206Z,67.75
2019-02-20T21:41:16.350Z,10.93
2019-02-20T21:43:42.621Z,10.32
2019-02-20T21:46:08.787Z,8.23
2019-02-20T21:48:34.943Z,11.35
2019-02-20T21:51:01.114Z,7.33
2019-02-20T21:53:27.351Z,8.08
2019-02-20T21:55:53.620Z,10.45
2019-02-20T21:58:19.786Z,8.53
2019-02-20T22:00:45.935Z,4.90
2019-02-20T22:03:12.168Z,10.85
2019-02-20T22:05:38.377Z,7.28
2019-02-20T22:08:04.534Z,10.70
2019-02-20T22:10:30.693Z,14.10
2019-02-20T22:12:57.125Z,17.10
2019-02-20T22:15:23.270Z,9.80
2019-02-20T22:17:49.423Z,7.30
2019-02-20T22:20:15.607Z,8.80
2019-02-20T22:22:41.858Z,8.10
2019-02-20T22:25:08.003Z,5.30
2019-02-20T22:27:34.161Z,10.35
2019-02-20T22:30:00.496Z,10.18
2019-02-20T22:32:27.316Z,8.28
2019-02-20T22:34:53.502Z,9.45
2019-02-20T22:37:19.659Z,14.87
2019-02-20T22:39:45.834Z,14.18
2019-02-20T22:42:12.008Z,12.23
2019-02-20T22:44:38.160Z,11.45
2019-02-20T22:47:04.329Z,8.05
2019-02-20T22:49:30.490Z,7.22
